Time;durP1;ratioP1;P1;durP2;ratioP2;P2;SDS_P1;SDS_P2;PMS_P1;PMS_P2;Temp;Humidity;BMP_temperature;BMP_pressure;BME280_temperature;BME280_humidity;BME280_pressure;Samples;Min_cycle;Max_cycle;Signal;HPM_P1;HPM_P2
2023/12/15 00:00:57;;;;;;;6.85;3.85;;;;;;;5.57;100.00;98990.84;2620462;28;20045;-92
2023/12/15 00:02:31;;;;;;;6.70;3.42;;;;;;;5.58;100.00;98989.97;2627133;28;20044;-92
2023/12/15 00:03:46;;;;;;;6.60;3.80;;;;;;;5.60;100.00;98988.28;2628380;28;20059;-91
2023/12/15 00:05:02;;;;;;;7.03;4.22;;;;;;;5.61;100.00;98998.66;2623097;28;20047;-91
2023/12/15 00:06:18;;;;;;;8.40;3.85;;;;;;;5.60;100.00;98993.47;2622911;28;20064;-92
2023/12/15 00:07:33;;;;;;;7.45;3.85;;;;;;;5.61;100.00;99000.41;2620866;28;20093;-92
2023/12/15 00:08:49;;;;;;;7.15;3.85;;;;;;;5.59;100.00;98999.53;2626259;28;20051;-92
2023/12/15 00:10:06;;;;;;;6.65;3.47;;;;;;;5.54;100.00;99001.25;2622930;28;20130;-92
2023/12/15 00:11:21;;;;;;;6.55;3.65;;;;;;;5.55;100.00;99000.38;2628728;28;20074;-92
2023/12/15 00:12:37;;;;;;;6.63;3.70;;;;;;;5.51;100.00;98997.78;2629348;28;20110;-91
2023/12/15 00:13:52;;;;;;;9.13;3.50;;;;;;;5.50;100.00;98998.66;2622198;28;20048;-92
2023/12/15 00:15:09;;;;;;;6.20;3.53;;;;;;;5.55;100.00;99002.97;2623031;28;20043;-92
2023/12/15 00:16:24;;;;;;;5.45;3.28;;;;;;;5.53;100.00;99002.09;2622780;28;20039;-93
2023/12/15 00:17:40;;;;;;;7.60;3.88;;;;;;;5.55;100.00;99001.25;2620801;28;20059;-92
2023/12/15 00:18:56;;;;;;;6.45;3.40;;;;;;;5.56;100.00;99007.31;2624862;28;20043;-92
2023/12/15 00:20:11;;;;;;;6.90;3.63;;;;;;;5.32;100.00;99015.06;2629009;28;20637;-92
2023/12/15 00:21:27;;;;;;;5.47;3.47;;;;;;;5.07;100.00;99008.94;2628539;28;20126;-92
2023/12/15 00:22:43;;;;;;;6.43;3.45;;;;;;;5.00;100.00;99012.34;2621119;28;20049;-92
2023/12/15 00:23:58;;;;;;;6.50;3.67;;;;;;;5.00;100.00;99015.81;2621874;28;20043;-92
2023/12/15 00:25:14;;;;;;;6.22;3.47;;;;;;;4.95;100.00;99013.19;2622938;28;20434;-92
2023/12/15 00:26:30;;;;;;;5.82;3.75;;;;;;;4.85;100.00;99015.75;2622690;28;20477;-92
2023/12/15 00:27:45;;;;;;;5.95;3.70;;;;;;;4.90;100.00;99017.53;2617050;28;20052;-92
2023/12/15 00:29:05;;;;;;;7.32;3.85;;;;;;;4.77;100.00;99024.38;2618866;28;20056;-92
2023/12/15 00:30:21;;;;;;;7.30;3.90;;;;;;;4.86;100.00;99015.75;2624764;28;20079;-92
2023/12/15 00:31:36;;;;;;;7.55;3.95;;;;;;;4.82;100.00;99026.97;2620504;28;20055;-92
2023/12/15 00:32:53;;;;;;;6.00;3.80;;;;;;;4.93;100.00;99030.50;2627175;28;20043;-92
2023/12/15 00:34:08;;;;;;;6.25;3.65;;;;;;;5.05;100.00;99028.81;2630816;28;20079;-92
2023/12/15 00:35:24;;;;;;;6.78;3.67;;;;;;;5.15;100.00;99033.16;2627808;28;20048;-92
2023/12/15 00:36:40;;;;;;;7.22;3.67;;;;;;;5.20;100.00;99030.59;2624530;28;20054;-92
2023/12/15 00:37:55;;;;;;;6.70;4.25;;;;;;;5.18;100.00;99042.69;2634762;28;20090;-92
2023/12/15 00:39:11;;;;;;;9.60;4.30;;;;;;;4.98;100.00;99038.31;2631029;28;20537;-92
2023/12/15 00:40:26;;;;;;;8.00;3.88;;;;;;;5.06;100.00;99040.94;2631142;28;20052;-92
2023/12/15 00:41:42;;;;;;;6.25;3.65;;;;;;;5.06;100.00;99043.53;2631035;28;20052;-93
2023/12/15 00:42:58;;;;;;;5.82;3.72;;;;;;;4.97;100.00;99044.38;2627630;28;20036;-92
2023/12/15 00:44:14;;;;;;;6.68;3.80;;;;;;;5.15;100.00;99033.16;2624949;28;20047;-92
2023/12/15 00:45:29;;;;;;;8.00;3.90;;;;;;;5.07;100.00;99040.06;2623242;28;20048;-93
2023/12/15 00:46:45;;;;;;;6.95;3.95;;;;;;;5.15;100.00;99045.28;2624333;28;20121;-92
2023/12/15 00:48:01;;;;;;;8.07;4.13;;;;;;;4.97;100.00;99048.66;2623204;28;20908;-92
2023/12/15 00:49:17;;;;;;;9.25;4.47;;;;;;;5.15;100.00;99046.13;2620966;28;20091;-92
2023/12/15 00:50:32;;;;;;;7.95;4.32;;;;;;;5.09;100.00;99052.16;2622178;28;20048;-92
2023/12/15 00:51:48;;;;;;;7.55;4.15;;;;;;;4.95;100.00;99052.13;2630869;28;20052;-92
2023/12/15 00:53:04;;;;;;;8.20;4.53;;;;;;;5.02;100.00;99052.13;2619957;28;20052;-93
2023/12/15 00:54:19;;;;;;;8.10;4.20;;;;;;;5.00;100.00;99056.47;2623678;28;20052;-93
2023/12/15 00:55:35;;;;;;;9.10;4.40;;;;;;;5.11;100.00;99054.78;2631673;28;20048;-93
2023/12/15 00:56:51;;;;;;;7.85;4.22;;;;;;;5.01;100.00;99064.28;2631578;28;20392;-92
2023/12/15 00:58:06;;;;;;;9.35;4.68;;;;;;;4.98;100.00;99063.38;2630758;28;20072;-92
2023/12/15 00:59:22;;;;;;;8.75;4.13;;;;;;;4.98;100.00;99063.38;2621814;28;20032;-92
2023/12/15 01:00:38;;;;;;;7.35;4.07;;;;;;;4.99;100.00;99065.09;2628418;28;20050;-93
2023/12/15 01:01:53;;;;;;;9.35;4.63;;;;;;;5.01;100.00;99069.47;2630805;28;20061;-92
2023/12/15 01:03:09;;;;;;;8.27;4.53;;;;;;;5.13;100.00;99068.63;2624158;28;20109;-92
2023/12/15 01:04:24;;;;;;;9.02;4.50;;;;;;;5.26;100.00;99073.88;2631249;28;20036;-92
2023/12/15 01:05:40;;;;;;;8.88;4.57;;;;;;;5.31;100.00;99070.44;2622159;28;20126;-93
2023/12/15 01:06:55;;;;;;;8.52;4.57;;;;;;;5.30;100.00;99070.41;2629398;28;20044;-92
2023/12/15 01:08:11;;;;;;;9.88;5.15;;;;;;;5.34;100.00;99078.22;2624160;28;20502;-92
2023/12/15 01:09:27;;;;;;;8.43;5.13;;;;;;;5.38;100.00;99079.13;2626913;28;20534;-92
2023/12/15 01:10:43;;;;;;;8.85;4.90;;;;;;;5.36;100.00;99080.84;2631535;28;20048;-93
2023/12/15 01:11:58;;;;;;;9.02;4.78;;;;;;;5.37;100.00;99082.56;2627163;28;20048;-92
2023/12/15 01:13:14;;;;;;;8.50;4.60;;;;;;;5.39;100.00;99080.84;2626902;28;20483;-92
2023/12/15 01:14:30;;;;;;;9.07;4.55;;;;;;;5.37;100.00;99083.44;2630064;28;20810;-93
2023/12/15 01:15:45;;;;;;;10.32;5.70;;;;;;;5.33;100.00;99080.84;2630355;28;20475;-92
2023/12/15 01:17:02;;;;;;;8.45;4.88;;;;;;;5.40;100.00;99089.53;2631005;28;20088;-92
2023/12/15 01:18:17;;;;;;;9.60;5.22;;;;;;;5.42;100.00;99091.25;2628742;28;20050;-92
2023/12/15 01:19:33;;;;;;;9.38;5.28;;;;;;;5.46;100.00;99092.13;2628144;28;20115;-93
2023/12/15 01:20:49;;;;;;;9.15;4.53;;;;;;;5.24;100.00;99102.44;2624547;28;20131;-92
2023/12/15 01:22:04;;;;;;;8.75;4.60;;;;;;;5.17;100.00;99101.56;2624064;28;20098;-92
2023/12/15 01:23:19;;;;;;;9.65;4.72;;;;;;;5.15;100.00;99102.41;2627796;28;20040;-92
2023/12/15 01:24:35;;;;;;;9.90;4.38;;;;;;;5.18;100.00;99108.47;2624462;28;20040;-93
2023/12/15 01:25:51;;;;;;;7.90;4.40;;;;;;;5.14;100.00;99106.72;2630923;28;20062;-92
2023/12/15 01:27:06;;;;;;;10.45;5.35;;;;;;;5.25;100.00;99109.38;2630721;28;20515;-94
2023/12/15 01:28:22;;;;;;;8.70;4.60;;;;;;;5.28;100.00;99105.91;2630737;28;20499;-92
2023/12/15 01:29:37;;;;;;;9.70;5.13;;;;;;;5.25;100.00;99114.56;2628669;28;20048;-92
2023/12/15 01:30:53;;;;;;;8.07;4.18;;;;;;;5.27;100.00;99111.97;2623794;28;20044;-92
2023/12/15 01:32:09;;;;;;;7.65;4.47;;;;;;;5.27;100.00;99111.97;2630871;28;20075;-92
2023/12/15 01:33:24;;;;;;;7.88;4.72;;;;;;;4.94;100.00;99110.06;2630778;28;20040;-93
2023/12/15 01:34:40;;;;;;;10.40;5.03;;;;;;;4.93;100.00;99116.13;2629928;28;20117;-92
2023/12/15 01:35:56;;;;;;;9.75;5.15;;;;;;;5.04;100.00;99117.94;2624000;28;20032;-93
2023/12/15 01:37:11;;;;;;;9.68;5.28;;;;;;;5.05;100.00;99117.91;2623987;28;20040;-92
2023/12/15 01:38:27;;;;;;;6.95;4.53;;;;;;;5.17;100.00;99117.13;2630798;28;20047;-92
2023/12/15 01:39:42;;;;;;;8.57;4.78;;;;;;;5.13;100.00;99120.56;2621360;28;20066;-92
2023/12/15 01:40:58;;;;;;;9.70;5.15;;;;;;;5.04;100.00;99123.97;2630908;28;20048;-92
2023/12/15 01:42:13;;;;;;;10.25;5.15;;;;;;;5.04;100.00;99123.13;2619532;28;20052;-93
2023/12/15 01:43:29;;;;;;;9.88;5.10;;;;;;;4.92;100.00;99118.69;2618111;28;20046;-92
2023/12/15 01:44:45;;;;;;;9.00;4.90;;;;;;;4.97;100.00;99123.94;2630352;28;20051;-92
2023/12/15 01:46:00;;;;;;;9.38;4.80;;;;;;;4.78;100.00;99129.00;2629856;28;20044;-92
2023/12/15 01:47:18;;;;;;;10.13;5.32;;;;;;;4.78;100.00;99129.00;2630746;28;20071;-92
2023/12/15 01:48:34;;;;;;;10.98;5.22;;;;;;;4.90;100.00;99123.03;2623973;28;20051;-92
2023/12/15 01:49:49;;;;;;;9.15;4.78;;;;;;;4.89;100.00;99127.38;2624008;28;20048;-92
2023/12/15 01:51:05;;;;;;;13.00;5.35;;;;;;;5.02;100.00;99133.47;2623907;28;20048;-93
2023/12/15 01:52:21;;;;;;;10.07;5.03;;;;;;;5.03;100.00;99134.31;2630428;28;20048;-92
2023/12/15 01:53:36;;;;;;;12.13;5.32;;;;;;;4.95;100.00;99132.56;2627383;28;20090;-92
2023/12/15 01:54:52;;;;;;;9.50;5.22;;;;;;;4.90;100.00;99141.19;2629678;28;20066;-92
2023/12/15 01:56:09;;;;;;;10.55;5.22;;;;;;;4.82;100.00;99141.13;2630196;28;20054;-92
2023/12/15 01:57:24;;;;;;;9.73;4.93;;;;;;;4.94;100.00;99133.44;2623661;28;20123;-91
2023/12/15 01:58:40;;;;;;;11.63;5.60;;;;;;;4.84;100.00;99146.34;2623606;28;20051;-92
2023/12/15 01:59:56;;;;;;;10.18;5.28;;;;;;;4.88;100.00;99142.91;2621445;28;20040;-91
2023/12/15 02:01:11;;;;;;;10.75;5.50;;;;;;;4.89;100.00;99142.94;2619813;28;20533;-92
2023/12/15 02:02:27;;;;;;;10.98;5.03;;;;;;;4.97;100.00;99147.28;2619893;28;20052;-92
2023/12/15 02:03:43;;;;;;;10.10;5.55;;;;;;;4.91;100.00;99149.00;2620773;28;20104;-92
2023/12/15 02:04:59;;;;;;;9.75;5.00;;;;;;;5.00;100.00;99142.97;2630081;28;20488;-91
2023/12/15 02:06:15;;;;;;;11.20;5.05;;;;;;;4.91;100.00;99148.09;2623914;28;20161;-92
2023/12/15 02:07:30;;;;;;;9.82;5.25;;;;;;;5.05;100.00;99143.88;2624003;28;20040;-92
2023/12/15 02:08:47;;;;;;;10.57;4.53;;;;;;;5.11;100.00;99147.38;2630705;28;20047;-92
2023/12/15 02:10:04;;;;;;;10.15;5.15;;;;;;;5.04;100.00;99139.53;2629378;28;20075;-91
2023/12/15 02:11:19;;;;;;;12.07;5.10;;;;;;;5.14;100.00;99153.44;2630340;28;20043;-91
2023/12/15 02:12:35;;;;;;;10.48;5.18;;;;;;;5.18;100.00;99150.00;2629873;28;20101;-92
2023/12/15 02:13:50;;;;;;;9.82;5.07;;;;;;;5.25;100.00;99156.09;2621019;28;20078;-92
2023/12/15 02:15:09;;;;;;;8.88;5.05;;;;;;;5.28;100.00;99156.13;2621979;28;20511;-92
2023/12/15 02:16:24;;;;;;;10.70;5.18;;;;;;;5.30;100.00;99158.69;2622580;28;20051;-92
2023/12/15 02:17:41;;;;;;;8.20;4.82;;;;;;;5.25;100.00;99160.41;2621473;28;20039;-91
2023/12/15 02:18:57;;;;;;;9.45;5.07;;;;;;;5.16;100.00;99150.84;2623743;28;20504;-91
2023/12/15 02:20:12;;;;;;;9.27;4.72;;;;;;;5.04;100.00;99152.50;2623414;28;20098;-92
2023/12/15 02:21:28;;;;;;;8.82;4.60;;;;;;;4.93;100.00;99154.16;2627577;28;20044;-91
2023/12/15 02:22:44;;;;;;;8.80;4.55;;;;;;;4.88;100.00;99161.06;2621635;28;20525;-91
2023/12/15 02:23:59;;;;;;;6.57;4.03;;;;;;;4.85;100.00;99166.25;2630009;28;20548;-91
2023/12/15 02:25:15;;;;;;;9.77;4.65;;;;;;;4.77;100.00;99168.78;2631211;28;20040;-92
2023/12/15 02:26:31;;;;;;;7.38;4.28;;;;;;;5.05;100.00;99159.44;2630744;28;20067;-91
2023/12/15 02:27:46;;;;;;;7.35;4.13;;;;;;;5.02;100.00;99158.53;2629174;28;20560;-91
2023/12/15 02:29:02;;;;;;;6.05;4.05;;;;;;;5.06;100.00;99166.38;2629454;28;20130;-91
2023/12/15 02:30:17;;;;;;;7.43;4.40;;;;;;;5.23;100.00;99158.69;2629557;28;20141;-92
2023/12/15 02:31:33;;;;;;;7.65;3.88;;;;;;;5.03;100.00;99162.88;2629107;28;20050;-93
2023/12/15 02:32:49;;;;;;;7.97;4.38;;;;;;;4.86;100.00;99160.19;2630387;28;20407;-91
2023/12/15 02:34:04;;;;;;;7.38;4.10;;;;;;;4.75;100.00;99165.28;2628871;28;20044;-92
2023/12/15 02:35:20;;;;;;;7.90;4.30;;;;;;;4.92;100.00;99168.88;2623037;28;20044;-92
2023/12/15 02:36:35;;;;;;;6.55;3.95;;;;;;;4.94;100.00;99164.56;2623366;28;20044;-91
2023/12/15 02:37:51;;;;;;;8.57;4.18;;;;;;;4.97;100.00;99163.72;2629835;28;20035;-91
2023/12/15 02:39:06;;;;;;;7.13;3.90;;;;;;;5.15;100.00;99165.56;2629415;28;20040;-91
2023/12/15 02:40:22;;;;;;;8.27;4.68;;;;;;;5.11;100.00;99173.34;2630057;28;20059;-92
2023/12/15 02:41:38;;;;;;;6.85;3.92;;;;;;;5.12;100.00;99170.72;2629651;28;20052;-92
2023/12/15 02:42:53;;;;;;;9.02;4.15;;;;;;;5.13;100.00;99177.66;2629633;28;20070;-92
2023/12/15 02:44:10;;;;;;;10.63;4.72;;;;;;;5.12;100.00;99175.06;2622418;28;20079;-91
2023/12/15 02:45:25;;;;;;;8.68;4.30;;;;;;;5.07;100.00;99178.47;2621027;28;20462;-92
2023/12/15 02:46:41;;;;;;;9.27;4.53;;;;;;;4.99;100.00;99176.69;2627943;28;20075;-92
2023/12/15 02:47:57;;;;;;;9.80;4.13;;;;;;;4.97;100.00;99176.72;2625099;28;20109;-91
2023/12/15 02:49:12;;;;;;;7.70;4.38;;;;;;;4.92;100.00;99181.88;2621735;28;20067;-92
2023/12/15 02:50:28;;;;;;;7.47;4.43;;;;;;;5.01;100.00;99180.16;2621565;28;20094;-91
2023/12/15 02:51:44;;;;;;;9.40;4.63;;;;;;;5.03;100.00;99183.63;2622033;28;20098;-92
2023/12/15 02:52:59;;;;;;;8.48;4.60;;;;;;;4.98;100.00;99183.63;2622447;28;20051;-91
2023/12/15 02:54:15;;;;;;;10.02;4.38;;;;;;;5.04;100.00;99185.41;2621757;28;20581;-92
2023/12/15 02:55:31;;;;;;;7.30;3.95;;;;;;;5.09;100.00;99181.94;2623254;28;20046;-91
2023/12/15 02:56:46;;;;;;;5.85;3.78;;;;;;;4.97;100.00;99187.09;2623354;28;20044;-91
2023/12/15 02:58:02;;;;;;;8.93;4.72;;;;;;;5.04;100.00;99191.44;2626592;28;20051;-92
2023/12/15 02:59:18;;;;;;;7.57;4.22;;;;;;;5.02;100.00;99192.28;2629654;28;20860;-92
2023/12/15 03:00:33;;;;;;;7.72;4.05;;;;;;;5.01;100.00;99198.34;2623096;28;20537;-92
2023/12/15 03:01:49;;;;;;;6.30;4.00;;;;;;;4.91;100.00;99203.47;2629415;28;20048;-92
2023/12/15 03:03:05;;;;;;;7.07;3.60;;;;;;;4.93;100.00;99200.88;2622461;28;20054;-91
2023/12/15 03:04:20;;;;;;;6.90;3.88;;;;;;;4.88;100.00;99203.44;2616466;28;20125;-91
2023/12/15 03:05:36;;;;;;;7.15;3.95;;;;;;;4.91;100.00;99213.88;2618967;28;20044;-92
2023/12/15 03:06:54;;;;;;;7.18;3.70;;;;;;;4.89;100.00;99206.91;2622715;28;20519;-92
2023/12/15 03:08:09;;;;;;;6.10;3.28;;;;;;;4.95;100.00;99213.03;2612546;28;20064;-91
2023/12/15 03:09:24;;;;;;;6.25;3.53;;;;;;;4.91;100.00;99208.69;2616210;28;20605;-91
2023/12/15 03:10:40;;;;;;;6.13;3.13;;;;;;;4.98;100.00;99209.59;2621799;28;20074;-93
2023/12/15 03:11:56;;;;;;;5.13;2.80;;;;;;;4.94;100.00;99216.47;2629476;28;20044;-92
2023/12/15 03:13:12;;;;;;;6.20;2.75;;;;;;;5.04;100.00;99221.75;2629425;28;20047;-91
2023/12/15 03:14:27;;;;;;;5.25;2.75;;;;;;;4.95;100.00;99217.31;2606736;28;20153;-90
2023/12/15 03:15:43;;;;;;;4.28;2.40;;;;;;;5.19;100.00;99216.66;2613701;28;20051;-91
2023/12/15 03:16:58;;;;;;;4.20;2.28;;;;;;;5.09;100.00;99223.47;2620742;28;20105;-91
2023/12/15 03:18:14;;;;;;;3.22;2.10;;;;;;;5.06;100.00;99231.25;2620404;28;20048;-91
2023/12/15 03:19:30;;;;;;;4.13;2.53;;;;;;;5.03;100.00;99235.53;2619783;28;20047;-91
2023/12/15 03:20:45;;;;;;;3.60;2.22;;;;;;;5.18;100.00;99237.41;2626888;28;20105;-92
2023/12/15 03:22:01;;;;;;;5.00;2.60;;;;;;;5.30;100.00;99241.78;2629693;28;20434;-91
2023/12/15 03:23:16;;;;;;;5.97;2.50;;;;;;;5.22;100.00;99242.63;2623112;28;20518;-92
2023/12/15 03:24:32;;;;;;;3.83;2.35;;;;;;;4.90;100.00;99243.25;2622719;28;20047;-92
2023/12/15 03:25:48;;;;;;;4.38;2.10;;;;;;;4.96;100.00;99239.84;2630043;28;20055;-91
2023/12/15 03:27:04;;;;;;;3.58;2.17;;;;;;;5.23;100.00;99243.47;2630108;28;20510;-92
2023/12/15 03:28:19;;;;;;;2.83;1.60;;;;;;;4.99;100.00;99247.66;2624206;28;20131;-92
2023/12/15 03:29:35;;;;;;;5.30;2.10;;;;;;;5.15;100.00;99240.81;2626397;28;20093;-92
2023/12/15 03:30:51;;;;;;;4.53;2.17;;;;;;;5.30;100.00;99246.97;2629269;28;20059;-91
2023/12/15 03:32:06;;;;;;;3.22;1.80;;;;;;;5.25;100.00;99246.97;2629061;28;20438;-91
2023/12/15 03:33:25;;;;;;;2.85;1.80;;;;;;;5.22;100.00;99244.34;2625306;28;20099;-92
2023/12/15 03:34:40;;;;;;;4.47;1.92;;;;;;;5.24;100.00;99247.84;2623019;28;20051;-92
2023/12/15 03:35:56;;;;;;;4.15;2.13;;;;;;;5.03;100.00;99254.59;2623486;28;20067;-92
2023/12/15 03:37:12;;;;;;;3.90;1.75;;;;;;;4.96;100.00;99245.03;2618995;28;20056;-92
2023/12/15 03:38:27;;;;;;;3.65;2.15;;;;;;;4.94;100.00;99250.22;2619870;28;20040;-92
2023/12/15 03:39:43;;;;;;;3.42;2.17;;;;;;;5.27;100.00;99244.38;2629509;28;20047;-92
2023/12/15 03:40:59;;;;;;;4.13;2.28;;;;;;;5.28;100.00;99244.41;2621669;28;20044;-91
2023/12/15 03:42:14;;;;;;;3.75;1.88;;;;;;;5.20;100.00;99248.66;2621618;28;20113;-92
2023/12/15 03:43:30;;;;;;;4.97;2.30;;;;;;;5.28;100.00;99251.28;2633587;28;20510;-92
2023/12/15 03:44:46;;;;;;;3.50;2.10;;;;;;;5.29;100.00;99255.63;2629261;28;20108;-92
2023/12/15 03:46:01;;;;;;;3.88;2.35;;;;;;;5.26;100.00;99256.50;2622335;28;20048;-92
2023/12/15 03:47:17;;;;;;;4.70;2.40;;;;;;;5.20;100.00;99257.31;2623113;28;20126;-92
2023/12/15 03:48:32;;;;;;;3.80;2.42;;;;;;;5.23;100.00;99262.53;2622794;28;20043;-92
2023/12/15 03:49:48;;;;;;;4.93;2.42;;;;;;;5.21;100.00;99266.84;2623379;28;20281;-92
2023/12/15 03:51:04;;;;;;;3.97;2.15;;;;;;;5.25;100.00;99265.16;2629255;28;20048;-92
2023/12/15 03:52:20;;;;;;;4.07;2.30;;;;;;;5.26;100.00;99266.88;2629009;28;20060;-92
2023/12/15 03:53:35;;;;;;;3.17;1.98;;;;;;;5.20;100.00;99266.81;2623139;28;20035;-92
2023/12/15 03:54:51;;;;;;;3.58;2.08;;;;;;;5.08;100.00;99265.03;2622804;28;20048;-92
2023/12/15 03:56:07;;;;;;;4.65;2.70;;;;;;;4.93;100.00;99274.41;2621075;28;20048;-92
2023/12/15 03:57:23;;;;;;;3.95;2.38;;;;;;;5.14;100.00;99272.00;2624615;28;20055;-92
2023/12/15 03:58:38;;;;;;;4.13;2.42;;;;;;;5.03;100.00;99279.66;2629304;28;20433;-92
2023/12/15 03:59:54;;;;;;;3.95;2.30;;;;;;;5.04;100.00;99287.47;2629295;28;20079;-92
2023/12/15 04:01:09;;;;;;;4.05;2.50;;;;;;;4.84;100.00;99279.53;2622718;28;20044;-92
2023/12/15 04:02:25;;;;;;;4.97;2.75;;;;;;;4.72;100.00;99282.88;2626994;28;20051;-91
2023/12/15 04:03:41;;;;;;;6.05;2.80;;;;;;;4.81;100.00;99289.88;2629098;28;20105;-92
2023/12/15 04:04:56;;;;;;;4.82;2.58;;;;;;;5.11;100.00;99288.41;2622407;28;20047;-92
2023/12/15 04:06:12;;;;;;;4.97;3.17;;;;;;;4.97;100.00;99285.72;2622859;28;20138;-92
2023/12/15 04:07:27;;;;;;;3.72;2.75;;;;;;;5.15;100.00;99292.75;2622681;28;20048;-92
2023/12/15 04:08:43;;;;;;;5.93;2.67;;;;;;;5.02;100.00;99291.78;2623187;28;20032;-92
2023/12/15 04:09:59;;;;;;;4.93;2.50;;;;;;;5.18;100.00;99297.09;2623117;28;20040;-91
2023/12/15 04:11:17;;;;;;;4.70;2.50;;;;;;;5.19;100.00;99298.84;2620113;28;20472;-92
2023/12/15 04:12:33;;;;;;;4.43;2.63;;;;;;;5.09;100.00;99311.72;2623172;28;20062;-91
2023/12/15 04:13:48;;;;;;;4.70;2.50;;;;;;;4.98;100.00;99313.41;2619517;28;20040;-91
2023/12/15 04:15:04;;;;;;;4.53;2.83;;;;;;;5.03;100.00;99311.69;2620150;28;20051;-92
2023/12/15 04:16:20;;;;;;;4.40;2.60;;;;;;;5.18;100.00;99313.56;2629425;28;20135;-91
2023/12/15 04:17:36;;;;;;;5.43;2.58;;;;;;;5.23;100.00;99317.06;2628901;28;20059;-92
2023/12/15 04:18:51;;;;;;;6.43;2.30;;;;;;;5.14;100.00;99318.72;2622824;28;20044;-91
2023/12/15 04:20:08;;;;;;;5.25;2.30;;;;;;;5.18;100.00;99331.72;2623147;28;20071;-92
2023/12/15 04:21:24;;;;;;;7.22;2.80;;;;;;;5.23;100.00;99327.44;2629012;28;20217;-92
2023/12/15 04:22:40;;;;;;;5.00;2.65;;;;;;;4.98;100.00;99325.50;2629019;28;20051;-92
2023/12/15 04:23:56;;;;;;;4.50;2.47;;;;;;;5.10;100.00;99330.78;2622339;28;20051;-91
2023/12/15 04:25:11;;;;;;;5.57;2.80;;;;;;;5.26;100.00;99334.38;2622509;28;20048;-92
2023/12/15 04:26:27;;;;;;;5.13;2.70;;;;;;;5.21;100.00;99338.66;2622625;28;20040;-92
2023/12/15 04:27:42;;;;;;;3.75;2.22;;;;;;;5.18;100.00;99347.31;2622158;28;20051;-92
2023/12/15 04:28:58;;;;;;;2.78;1.80;;;;;;;5.21;100.00;99342.13;2618971;28;20075;-92
2023/12/15 04:30:14;;;;;;;2.78;1.77;;;;;;;5.09;100.00;99352.41;2627659;28;20138;-92
2023/12/15 04:31:29;;;;;;;3.33;1.98;;;;;;;4.98;100.00;99348.84;2626860;28;20046;-92
2023/12/15 04:32:45;;;;;;;3.35;2.00;;;;;;;4.99;100.00;99351.47;2621997;28;20075;-92
2023/12/15 04:34:01;;;;;;;3.47;1.92;;;;;;;5.28;100.00;99352.56;2629225;28;20063;-91
2023/12/15 04:35:16;;;;;;;3.00;2.00;;;;;;;5.37;100.00;99357.84;2623649;28;20044;-91
2023/12/15 04:36:32;;;;;;;4.68;2.20;;;;;;;5.21;100.00;99357.72;2623034;28;20130;-92
2023/12/15 04:37:48;;;;;;;2.85;1.88;;;;;;;5.26;100.00;99360.34;2629672;28;20153;-92
2023/12/15 04:39:04;;;;;;;3.78;1.90;;;;;;;5.29;100.00;99362.09;2629246;28;20044;-91
2023/12/15 04:40:19;;;;;;;2.95;1.65;;;;;;;5.13;100.00;99359.38;2622574;28;20051;-91
2023/12/15 04:41:35;;;;;;;3.33;2.15;;;;;;;5.13;100.00;99369.75;2622148;28;20404;-92
2023/12/15 04:42:50;;;;;;;4.90;2.38;;;;;;;4.84;100.00;99365.16;2621890;28;20048;-92
2023/12/15 04:44:06;;;;;;;2.83;1.95;;;;;;;4.97;100.00;99371.34;2621811;28;20387;-91
2023/12/15 04:45:22;;;;;;;4.07;1.90;;;;;;;5.13;100.00;99374.09;2622711;28;20534;-92
2023/12/15 04:46:37;;;;;;;3.00;2.00;;;;;;;5.24;100.00;99372.47;2620308;28;20585;-93
2023/12/15 04:47:54;;;;;;;3.00;1.90;;;;;;;5.16;100.00;99380.16;2626110;28;20074;-91
2023/12/15 04:49:10;;;;;;;3.45;1.90;;;;;;;4.95;100.00;99378.22;2622285;28;20352;-92
2023/12/15 04:50:25;;;;;;;3.28;2.00;;;;;;;4.88;100.00;99376.44;2628737;28;20044;-92
2023/12/15 04:51:41;;;;;;;3.83;1.88;;;;;;;4.91;100.00;99381.66;2629158;28;20048;-91
2023/12/15 04:52:56;;;;;;;3.58;2.20;;;;;;;5.03;100.00;99386.97;2619780;28;20044;-92
2023/12/15 04:54:12;;;;;;;3.17;1.80;;;;;;;4.97;100.00;99380.84;2629457;28;20040;-91
2023/12/15 04:55:28;;;;;;;2.33;1.50;;;;;;;4.95;100.00;99386.88;2628976;28;20044;-92
2023/12/15 04:56:44;;;;;;;3.92;2.00;;;;;;;5.03;100.00;99393.88;2619518;28;20115;-91
2023/12/15 04:58:00;;;;;;;3.00;2.05;;;;;;;4.76;100.00;99395.34;2627117;28;20517;-91
2023/12/15 04:59:16;;;;;;;2.25;1.65;;;;;;;4.82;100.00;99395.41;2628881;28;20481;-92
2023/12/15 05:00:32;;;;;;;3.53;1.77;;;;;;;4.81;100.00;99398.84;2622546;28;20073;-91
2023/12/15 05:01:47;;;;;;;2.58;1.58;;;;;;;4.77;100.00;99403.13;2629739;28;20072;-92
2023/12/15 05:03:03;;;;;;;2.42;1.55;;;;;;;4.66;100.00;99403.03;2624412;28;20075;-92
2023/12/15 05:04:18;;;;;;;2.33;1.52;;;;;;;4.74;100.00;99404.81;2608910;28;20044;-92
2023/12/15 05:05:34;;;;;;;2.35;1.20;;;;;;;4.63;100.00;99397.81;2612183;28;20127;-92
2023/12/15 05:06:50;;;;;;;3.67;1.52;;;;;;;4.65;100.00;99409.06;2616301;28;20086;-92
2023/12/15 05:08:05;;;;;;;2.60;1.42;;;;;;;4.76;100.00;99410.91;2623105;28;20113;-93
2023/12/15 05:09:21;;;;;;;2.80;1.65;;;;;;;4.90;100.00;99408.47;2622650;28;20060;-92
2023/12/15 05:10:37;;;;;;;2.45;1.20;;;;;;;4.55;100.00;99416.72;2622652;28;20083;-93
2023/12/15 05:11:52;;;;;;;3.55;1.83;;;;;;;4.67;100.00;99411.66;2622003;28;20060;-92
2023/12/15 05:13:08;;;;;;;3.03;1.65;;;;;;;4.64;100.00;99422.88;2622327;28;20152;-93
2023/12/15 05:14:24;;;;;;;2.38;1.38;;;;;;;4.47;100.00;99424.38;2622314;28;20047;-93
2023/12/15 05:15:39;;;;;;;2.65;1.50;;;;;;;4.41;100.00;99427.78;2621102;28;20040;-93
2023/12/15 05:16:55;;;;;;;2.65;1.67;;;;;;;4.70;100.00;99429.88;2620455;28;20051;-93
2023/12/15 05:18:10;;;;;;;4.07;1.63;;;;;;;4.52;100.00;99426.19;2624859;28;20063;-92
2023/12/15 05:19:26;;;;;;;3.33;2.15;;;;;;;4.65;100.00;99426.34;2614467;28;20106;-93
2023/12/15 05:20:42;;;;;;;2.55;1.58;;;;;;;4.61;100.00;99428.03;2618567;28;20058;-92
2023/12/15 05:21:58;;;;;;;2.65;1.30;;;;;;;4.64;100.00;99432.38;2631399;28;20043;-92
2023/12/15 05:23:14;;;;;;;3.13;1.70;;;;;;;4.82;100.00;99429.13;2628344;28;20064;-91
2023/12/15 05:24:34;;;;;;;1.45;1.00;;;;;;;4.74;100.00;99422.97;2622471;28;20123;-93
2023/12/15 05:25:50;;;;;;;3.83;1.88;;;;;;;4.61;100.00;99435.81;2624949;28;20055;-92
2023/12/15 05:27:08;;;;;;;2.78;1.60;;;;;;;4.58;100.00;99437.50;2621801;28;20086;-92
2023/12/15 05:28:23;;;;;;;0.80;0.73;;;;;;;4.24;100.00;99443.97;2631096;28;20490;-92
2023/12/15 05:29:45;;;;;;;1.90;1.38;;;;;;;4.42;100.00;99445.09;2622608;28;20040;-93
2023/12/15 05:31:00;;;;;;;1.58;1.05;;;;;;;4.28;100.00;99447.47;2625432;28;20043;-92
2023/12/15 05:32:16;;;;;;;1.42;1.10;;;;;;;4.49;100.00;99454.69;2633700;28;20526;-92
2023/12/15 05:33:32;;;;;;;2.95;1.50;;;;;;;4.51;100.00;99452.13;2631204;28;20044;-93
2023/12/15 05:34:48;;;;;;;2.97;1.40;;;;;;;4.69;100.00;99456.66;2621560;28;20047;-92
2023/12/15 05:36:03;;;;;;;1.52;1.02;;;;;;;4.28;100.00;99457.84;2620835;28;20040;-92
2023/12/15 05:37:20;;;;;;;3.22;1.50;;;;;;;4.33;100.00;99471.78;2624102;28;20510;-92
2023/12/15 05:38:35;;;;;;;2.30;1.40;;;;;;;4.56;100.00;99463.41;2624441;28;20054;-93
2023/12/15 05:39:51;;;;;;;2.38;1.63;;;;;;;4.65;100.00;99466.13;2624431;28;20051;-92
2023/12/15 05:41:07;;;;;;;2.70;1.63;;;;;;;4.69;100.00;99463.56;2622790;28;20048;-93
2023/12/15 05:42:23;;;;;;;4.05;1.38;;;;;;;4.53;100.00;99473.75;2631059;28;20086;-92
2023/12/15 05:43:38;;;;;;;1.42;1.10;;;;;;;4.41;100.00;99471.88;2625686;28;20090;-92
2023/12/15 05:44:54;;;;;;;2.63;1.00;;;;;;;4.45;100.00;99484.00;2623932;28;20048;-92
2023/12/15 05:46:09;;;;;;;1.48;1.05;;;;;;;4.37;100.00;99485.63;2613924;28;20048;-93
2023/12/15 05:47:25;;;;;;;1.70;1.10;;;;;;;4.40;100.00;99482.22;2624695;28;20044;-92
2023/12/15 05:48:41;;;;;;;2.65;1.42;;;;;;;4.47;100.00;99495.28;2629548;28;20052;-91
2023/12/15 05:49:56;;;;;;;2.33;1.65;;;;;;;4.06;100.00;99500.72;2609640;28;20469;-91
2023/12/15 05:51:12;;;;;;;1.02;0.73;;;;;;;4.34;100.00;99499.44;2617475;28;20122;-92
2023/12/15 05:52:27;;;;;;;4.00;2.25;;;;;;;4.55;100.00;99491.94;2623200;28;20052;-92
2023/12/15 05:53:43;;;;;;;2.30;1.50;;;;;;;4.44;100.00;99502.13;2622769;28;20048;-92
2023/12/15 05:54:58;;;;;;;2.83;1.83;;;;;;;4.36;100.00;99510.69;2622401;28;20040;-91
2023/12/15 05:56:14;;;;;;;2.28;1.65;;;;;;;4.33;100.00;99508.06;2621788;28;20048;-92